Terminal Aerodrome Forecast
Issued by NWS Melbourne, FL

Home | Current Version | Previous Version | Text Only | Print | Product List | Glossary On
Versions: 1 2 3 4 5 6 7 8 9 10 11 12 13
000
FTUS42 KMLB 242321
TAFDAB
TAF
KDAB 242321Z 2500/2524 08007KT P6SM FEW022 SCT200
     FM251500 05006KT P6SM SCT025 SCT250
     FM251800 07008KT P6SM VCSH BKN035
     FM252100 08008KT P6SM SCT030 BKN250=

USA.gov is the U.S. government's official web portal to all federal, state and local government web resources and services.